sensor_id;sensor_type;location;lat;lon;timestamp;pressure;altitude;pressure_sealevel;temperature;humidity
55490;BME280;44029;52.956;4.772;2023-05-07T00:01:37;101805.22;;;15.77;100.00
55490;BME280;44029;52.956;4.772;2023-05-07T00:04:03;101810.34;;;15.95;100.00
55490;BME280;44029;52.956;4.772;2023-05-07T00:06:29;101812.91;;;16.02;100.00
55490;BME280;44029;52.956;4.772;2023-05-07T00:08:55;101808.00;;;15.77;100.00
55490;BME280;44029;52.956;4.772;2023-05-07T00:11:21;101810.41;;;15.73;100.00
55490;BME280;44029;52.956;4.772;2023-05-07T00:13:47;101813.41;;;15.99;100.00
55490;BME280;44029;52.956;4.772;2023-05-07T00:16:12;101823.38;;;16.00;100.00
55490;BME280;44029;52.956;4.772;2023-05-07T00:18:38;101824.03;;;15.80;100.00
55490;BME280;44029;52.956;4.772;2023-05-07T00:21:03;101831.09;;;15.71;100.00
55490;BME280;44029;52.956;4.772;2023-05-07T00:23:29;101828.88;;;15.73;100.00
55490;BME280;44029;52.956;4.772;2023-05-07T00:25:56;101823.69;;;16.03;100.00
55490;BME280;44029;52.956;4.772;2023-05-07T00:28:21;101819.38;;;15.85;100.00
55490;BME280;44029;52.956;4.772;2023-05-07T00:30:47;101825.72;;;15.86;100.00
55490;BME280;44029;52.956;4.772;2023-05-07T00:33:12;101829.09;;;15.88;100.00
55490;BME280;44029;52.956;4.772;2023-05-07T00:35:37;101816.66;;;15.91;100.00
55490;BME280;44029;52.956;4.772;2023-05-07T00:38:03;101820.19;;;15.86;100.00
55490;BME280;44029;52.956;4.772;2023-05-07T00:40:28;101830.19;;;15.87;100.00
55490;BME280;44029;52.956;4.772;2023-05-07T00:42:53;101823.56;;;15.88;100.00
55490;BME280;44029;52.956;4.772;2023-05-07T00:45:22;101820.63;;;16.00;100.00
55490;BME280;44029;52.956;4.772;2023-05-07T00:47:48;101826.16;;;16.00;100.00
55490;BME280;44029;52.956;4.772;2023-05-07T00:50:13;101822.59;;;16.04;100.00
55490;BME280;44029;52.956;4.772;2023-05-07T00:52:39;101827.53;;;15.97;100.00
55490;BME280;44029;52.956;4.772;2023-05-07T00:55:05;101832.41;;;16.22;100.00
55490;BME280;44029;52.956;4.772;2023-05-07T00:57:39;101827.72;;;16.23;100.00
55490;BME280;44029;52.956;4.772;2023-05-07T01:00:06;101824.78;;;16.02;100.00
55490;BME280;44029;52.956;4.772;2023-05-07T01:02:34;101822.50;;;15.94;100.00
55490;BME280;44029;52.956;4.772;2023-05-07T01:05:00;101819.25;;;16.02;100.00
55490;BME280;44029;52.956;4.772;2023-05-07T01:07:25;101818.13;;;15.98;100.00
55490;BME280;44029;52.956;4.772;2023-05-07T01:09:51;101818.22;;;16.09;100.00
55490;BME280;44029;52.956;4.772;2023-05-07T01:12:17;101814.91;;;16.12;100.00
55490;BME280;44029;52.956;4.772;2023-05-07T01:14:42;101811.84;;;16.08;100.00
55490;BME280;44029;52.956;4.772;2023-05-07T01:17:08;101806.91;;;16.10;100.00
55490;BME280;44029;52.956;4.772;2023-05-07T01:19:33;101810.59;;;16.26;100.00
55490;BME280;44029;52.956;4.772;2023-05-07T01:22:08;101810.50;;;16.48;100.00
55490;BME280;44029;52.956;4.772;2023-05-07T01:24:36;101811.72;;;16.25;100.00
55490;BME280;44029;52.956;4.772;2023-05-07T01:27:02;101816.38;;;16.19;100.00
55490;BME280;44029;52.956;4.772;2023-05-07T01:29:28;101816.25;;;16.41;100.00
55490;BME280;44029;52.956;4.772;2023-05-07T01:31:55;101821.66;;;16.63;100.00
55490;BME280;44029;52.956;4.772;2023-05-07T01:34:24;101806.53;;;16.81;100.00
55490;BME280;44029;52.956;4.772;2023-05-07T01:36:53;101796.53;;;16.70;100.00
55490;BME280;44029;52.956;4.772;2023-05-07T01:39:20;101800.28;;;16.54;100.00
55490;BME280;44029;52.956;4.772;2023-05-07T01:41:46;101807.50;;;16.60;100.00
55490;BME280;44029;52.956;4.772;2023-05-07T01:44:12;101806.94;;;16.58;100.00
55490;BME280;44029;52.956;4.772;2023-05-07T01:46:38;101801.38;;;16.48;100.00
55490;BME280;44029;52.956;4.772;2023-05-07T01:49:04;101800.03;;;16.55;100.00
55490;BME280;44029;52.956;4.772;2023-05-07T01:51:30;101805.59;;;16.60;100.00
55490;BME280;44029;52.956;4.772;2023-05-07T01:53:56;101801.53;;;16.73;100.00
55490;BME280;44029;52.956;4.772;2023-05-07T01:56:22;101800.38;;;16.64;100.00
55490;BME280;44029;52.956;4.772;2023-05-07T01:58:47;101794.84;;;16.69;100.00
55490;BME280;44029;52.956;4.772;2023-05-07T02:01:13;101787.50;;;16.85;100.00
55490;BME280;44029;52.956;4.772;2023-05-07T02:03:39;101794.00;;;16.69;100.00
55490;BME280;44029;52.956;4.772;2023-05-07T02:06:04;101797.91;;;16.73;100.00
55490;BME280;44029;52.956;4.772;2023-05-07T02:08:30;101793.72;;;16.65;100.00
55490;BME280;44029;52.956;4.772;2023-05-07T02:10:56;101793.13;;;16.58;100.00
55490;BME280;44029;52.956;4.772;2023-05-07T02:13:21;101802.50;;;16.52;100.00
55490;BME280;44029;52.956;4.772;2023-05-07T02:15:47;101806.34;;;16.46;100.00
55490;BME280;44029;52.956;4.772;2023-05-07T02:18:16;101804.25;;;16.68;100.00
55490;BME280;44029;52.956;4.772;2023-05-07T02:20:41;101809.56;;;16.80;100.00
55490;BME280;44029;52.956;4.772;2023-05-07T02:23:06;101795.53;;;16.87;100.00
55490;BME280;44029;52.956;4.772;2023-05-07T02:25:32;101793.41;;;16.61;100.00
55490;BME280;44029;52.956;4.772;2023-05-07T02:27:57;101796.59;;;16.80;100.00
55490;BME280;44029;52.956;4.772;2023-05-07T02:30:23;101791.34;;;16.84;100.00
55490;BME280;44029;52.956;4.772;2023-05-07T02:32:48;101792.69;;;16.81;100.00
55490;BME280;44029;52.956;4.772;2023-05-07T02:35:14;101789.38;;;16.79;100.00
55490;BME280;44029;52.956;4.772;2023-05-07T02:37:39;101789.91;;;16.76;100.00
55490;BME280;44029;52.956;4.772;2023-05-07T02:40:05;101793.84;;;16.86;100.00
55490;BME280;44029;52.956;4.772;2023-05-07T02:42:30;101792.69;;;16.81;100.00
55490;BME280;44029;52.956;4.772;2023-05-07T02:44:56;101798.16;;;16.66;100.00
55490;BME280;44029;52.956;4.772;2023-05-07T02:47:21;101795.66;;;16.65;100.00
55490;BME280;44029;52.956;4.772;2023-05-07T02:49:47;101799.88;;;16.77;100.00
55490;BME280;44029;52.956;4.772;2023-05-07T02:52:12;101806.44;;;16.61;100.00
55490;BME280;44029;52.956;4.772;2023-05-07T02:54:38;101807.00;;;16.63;100.00
55490;BME280;44029;52.956;4.772;2023-05-07T02:57:03;101798.75;;;16.78;100.00
55490;BME280;44029;52.956;4.772;2023-05-07T02:59:28;101802.56;;;16.62;100.00
55490;BME280;44029;52.956;4.772;2023-05-07T03:01:54;101805.91;;;16.64;100.00
55490;BME280;44029;52.956;4.772;2023-05-07T03:04:19;101811.03;;;16.88;100.00
55490;BME280;44029;52.956;4.772;2023-05-07T03:06:45;101803.69;;;16.66;100.00
55490;BME280;44029;52.956;4.772;2023-05-07T03:09:10;101811.44;;;16.69;100.00
55490;BME280;44029;52.956;4.772;2023-05-07T03:11:36;101810.63;;;16.69;100.00
55490;BME280;44029;52.956;4.772;2023-05-07T03:14:01;101806.53;;;16.81;100.00
55490;BME280;44029;52.956;4.772;2023-05-07T03:16:27;101806.88;;;16.85;100.00
55490;BME280;44029;52.956;4.772;2023-05-07T03:18:52;101810.38;;;16.75;100.00
55490;BME280;44029;52.956;4.772;2023-05-07T03:21:18;101807.06;;;16.73;100.00
55490;BME280;44029;52.956;4.772;2023-05-07T03:23:43;101808.72;;;16.74;100.00
55490;BME280;44029;52.956;4.772;2023-05-07T03:26:09;101809.94;;;16.89;100.00
55490;BME280;44029;52.956;4.772;2023-05-07T03:28:34;101820.88;;;16.68;100.00
55490;BME280;44029;52.956;4.772;2023-05-07T03:31:00;101814.50;;;16.73;100.00
55490;BME280;44029;52.956;4.772;2023-05-07T03:33:25;101803.88;;;16.92;100.00
55490;BME280;44029;52.956;4.772;2023-05-07T03:35:52;101802.06;;;16.70;100.00
55490;BME280;44029;52.956;4.772;2023-05-07T03:38:17;101804.56;;;16.72;100.00
55490;BME280;44029;52.956;4.772;2023-05-07T03:40:43;101805.91;;;16.64;100.00
55490;BME280;44029;52.956;4.772;2023-05-07T03:43:08;101811.63;;;16.52;100.00
55490;BME280;44029;52.956;4.772;2023-05-07T03:45:34;101809.97;;;16.51;100.00
55490;BME280;44029;52.956;4.772;2023-05-07T03:47:59;101814.38;;;16.52;100.00
55490;BME280;44029;52.956;4.772;2023-05-07T03:50:24;101817.09;;;16.42;100.00
55490;BME280;44029;52.956;4.772;2023-05-07T03:52:50;101815.72;;;16.45;100.00
55490;BME280;44029;52.956;4.772;2023-05-07T03:55:15;101814.84;;;16.39;100.00
55490;BME280;44029;52.956;4.772;2023-05-07T03:57:40;101823.16;;;16.39;100.00
55490;BME280;44029;52.956;4.772;2023-05-07T04:00:06;101815.72;;;16.45;100.00
55490;BME280;44029;52.956;4.772;2023-05-07T04:02:32;101827.31;;;16.41;100.00
55490;BME280;44029;52.956;4.772;2023-05-07T04:04:58;101821.38;;;16.22;100.00
55490;BME280;44029;52.956;4.772;2023-05-07T04:07:23;101842.69;;;16.27;100.00
55490;BME280;44029;52.956;4.772;2023-05-07T04:09:48;101836.59;;;16.25;100.00
55490;BME280;44029;52.956;4.772;2023-05-07T04:12:14;101847.53;;;16.42;100.00
55490;BME280;44029;52.956;4.772;2023-05-07T04:14:40;101838.75;;;16.18;100.00
55490;BME280;44029;52.956;4.772;2023-05-07T04:17:05;101846.25;;;16.22;100.00
55490;BME280;44029;52.956;4.772;2023-05-07T04:19:33;101839.38;;;16.25;100.00
55490;BME280;44029;52.956;4.772;2023-05-07T04:21:58;101843.66;;;16.11;100.00
55490;BME280;44029;52.956;4.772;2023-05-07T04:24:24;101846.69;;;16.09;100.00
55490;BME280;44029;52.956;4.772;2023-05-07T04:26:49;101846.63;;;16.04;100.00
55490;BME280;44029;52.956;4.772;2023-05-07T04:29:16;101849.97;;;16.06;100.00
55490;BME280;44029;52.956;4.772;2023-05-07T04:31:41;101855.53;;;16.11;100.00
55490;BME280;44029;52.956;4.772;2023-05-07T04:34:10;101848.63;;;16.09;100.00
55490;BME280;44029;52.956;4.772;2023-05-07T04:36:37;101851.38;;;16.09;100.00
55490;BME280;44029;52.956;4.772;2023-05-07T04:39:03;101854.50;;;16.17;100.00
55490;BME280;44029;52.956;4.772;2023-05-07T04:41:29;101859.94;;;16.07;100.00
55490;BME280;44029;52.956;4.772;2023-05-07T04:43:54;101851.09;;;16.05;100.00
55490;BME280;44029;52.956;4.772;2023-05-07T04:46:20;101862.28;;;15.93;100.00
55490;BME280;44029;52.956;4.772;2023-05-07T04:48:45;101859.31;;;16.00;100.00
55490;BME280;44029;52.956;4.772;2023-05-07T04:51:11;101859.56;;;15.98;100.00
55490;BME280;44029;52.956;4.772;2023-05-07T04:53:37;101862.22;;;16.15;100.00
55490;BME280;44029;52.956;4.772;2023-05-07T04:56:02;101860.94;;;15.96;100.00
55490;BME280;44029;52.956;4.772;2023-05-07T04:58:28;101859.63;;;16.03;100.00
55490;BME280;44029;52.956;4.772;2023-05-07T05:00:57;101863.28;;;16.09;100.00
55490;BME280;44029;52.956;4.772;2023-05-07T05:03:22;101866.25;;;16.02;100.00
55490;BME280;44029;52.956;4.772;2023-05-07T05:05:49;101875.56;;;16.23;100.00
55490;BME280;44029;52.956;4.772;2023-05-07T05:08:14;101876.53;;;16.07;100.00
55490;BME280;44029;52.956;4.772;2023-05-07T05:10:40;101881.53;;;16.10;100.00
55490;BME280;44029;52.956;4.772;2023-05-07T05:13:06;101879.38;;;16.17;100.00
55490;BME280;44029;52.956;4.772;2023-05-07T05:15:32;101876.09;;;16.20;100.00
55490;BME280;44029;52.956;4.772;2023-05-07T05:17:57;101870.25;;;16.17;100.00
55490;BME280;44029;52.956;4.772;2023-05-07T05:20:22;101876.28;;;16.14;100.00
55490;BME280;44029;52.956;4.772;2023-05-07T05:22:48;101881.50;;;16.05;100.00
55490;BME280;44029;52.956;4.772;2023-05-07T05:25:13;101877.97;;;16.15;100.00
55490;BME280;44029;52.956;4.772;2023-05-07T05:27:39;101878.53;;;16.17;100.00
55490;BME280;44029;52.956;4.772;2023-05-07T05:30:04;101883.00;;;16.18;100.00
55490;BME280;44029;52.956;4.772;2023-05-07T05:32:30;101885.19;;;16.16;100.00
55490;BME280;44029;52.956;4.772;2023-05-07T05:34:56;101884.91;;;16.17;100.00
55490;BME280;44029;52.956;4.772;2023-05-07T05:37:21;101885.06;;;16.06;100.00
55490;BME280;44029;52.956;4.772;2023-05-07T05:39:46;101888.28;;;16.24;100.00
55490;BME280;44029;52.956;4.772;2023-05-07T05:42:12;101893.00;;;16.24;100.00
55490;BME280;44029;52.956;4.772;2023-05-07T05:44:37;101886.28;;;16.15;100.00
55490;BME280;44029;52.956;4.772;2023-05-07T05:47:03;101895.56;;;16.31;100.00
55490;BME280;44029;52.956;4.772;2023-05-07T05:49:28;101887.38;;;16.46;100.00
55490;BME280;44029;52.956;4.772;2023-05-07T05:51:53;101892.09;;;16.51;100.00
55490;BME280;44029;52.956;4.772;2023-05-07T05:54:19;101892.72;;;16.58;100.00
55490;BME280;44029;52.956;4.772;2023-05-07T05:56:44;101890.41;;;16.45;100.00
55490;BME280;44029;52.956;4.772;2023-05-07T05:59:10;101895.88;;;16.39;100.00
55490;BME280;44029;52.956;4.772;2023-05-07T06:01:35;101893.22;;;16.50;100.00
55490;BME280;44029;52.956;4.772;2023-05-07T06:04:01;101893.97;;;16.40;100.00
55490;BME280;44029;52.956;4.772;2023-05-07T06:06:26;101883.22;;;16.43;100.00
55490;BME280;44029;52.956;4.772;2023-05-07T06:08:52;101883.78;;;16.46;100.00
55490;BME280;44029;52.956;4.772;2023-05-07T06:11:17;101888.38;;;16.35;100.00
55490;BME280;44029;52.956;4.772;2023-05-07T06:13:43;101879.44;;;16.60;100.00
55490;BME280;44029;52.956;4.772;2023-05-07T06:16:08;101879.59;;;16.43;100.00
55490;BME280;44029;52.956;4.772;2023-05-07T06:18:33;101883.69;;;16.73;100.00
55490;BME280;44029;52.956;4.772;2023-05-07T06:21:01;101881.47;;;16.70;100.00
55490;BME280;44029;52.956;4.772;2023-05-07T06:23:26;101881.16;;;16.66;100.00
55490;BME280;44029;52.956;4.772;2023-05-07T06:25:52;101883.53;;;16.85;100.00
55490;BME280;44029;52.956;4.772;2023-05-07T06:28:17;101876.97;;;16.96;100.00
55490;BME280;44029;52.956;4.772;2023-05-07T06:30:43;101877.88;;;16.74;100.00
55490;BME280;44029;52.956;4.772;2023-05-07T06:33:08;101880.31;;;16.66;100.00
55490;BME280;44029;52.956;4.772;2023-05-07T06:35:33;101882.44;;;16.91;100.00
55490;BME280;44029;52.956;4.772;2023-05-07T06:37:59;101880.13;;;16.77;100.00
55490;BME280;44029;52.956;4.772;2023-05-07T06:40:25;101884.13;;;16.92;100.00
55490;BME280;44029;52.956;4.772;2023-05-07T06:42:50;101883.47;;;16.79;100.00
55490;BME280;44029;52.956;4.772;2023-05-07T06:45:16;101881.16;;;17.04;100.00
55490;BME280;44029;52.956;4.772;2023-05-07T06:47:42;101881.13;;;16.98;100.00
55490;BME280;44029;52.956;4.772;2023-05-07T06:50:07;101882.22;;;16.97;100.00
55490;BME280;44029;52.956;4.772;2023-05-07T06:52:33;101889.44;;;17.04;100.00
55490;BME280;44029;52.956;4.772;2023-05-07T06:54:59;101881.78;;;17.16;100.00
55490;BME280;44029;52.956;4.772;2023-05-07T06:57:24;101875.47;;;17.36;100.00
55490;BME280;44029;52.956;4.772;2023-05-07T06:59:50;101875.22;;;17.43;100.00
55490;BME280;44029;52.956;4.772;2023-05-07T07:02:15;101877.00;;;17.69;100.00
55490;BME280;44029;52.956;4.772;2023-05-07T07:04:40;101872.97;;;17.29;100.00
55490;BME280;44029;52.956;4.772;2023-05-07T07:07:07;101865.75;;;17.28;100.00
55490;BME280;44029;52.956;4.772;2023-05-07T07:09:32;101868.81;;;17.32;100.00
55490;BME280;44029;52.956;4.772;2023-05-07T07:11:58;101871.84;;;17.25;100.00
55490;BME280;44029;52.956;4.772;2023-05-07T07:14:23;101864.88;;;17.17;100.00
55490;BME280;44029;52.956;4.772;2023-05-07T07:16:48;101866.69;;;17.54;100.00
55490;BME280;44029;52.956;4.772;2023-05-07T07:19:14;101862.78;;;17.40;100.00
55490;BME280;44029;52.956;4.772;2023-05-07T07:21:41;101866.44;;;17.61;100.00
55490;BME280;44029;52.956;4.772;2023-05-07T07:24:06;101859.28;;;17.81;100.00
55490;BME280;44029;52.956;4.772;2023-05-07T07:26:31;101855.38;;;17.82;100.00
55490;BME280;44029;52.956;4.772;2023-05-07T07:28:57;101849.34;;;18.00;100.00
55490;BME280;44029;52.956;4.772;2023-05-07T07:31:22;101853.25;;;18.20;100.00
55490;BME280;44029;52.956;4.772;2023-05-07T07:33:47;101852.56;;;17.56;100.00
55490;BME280;44029;52.956;4.772;2023-05-07T07:36:14;101854.47;;;17.50;100.00
55490;BME280;44029;52.956;4.772;2023-05-07T07:38:40;101858.00;;;17.30;100.00
55490;BME280;44029;52.956;4.772;2023-05-07T07:41:07;101863.94;;;17.65;100.00
55490;BME280;44029;52.956;4.772;2023-05-07T07:43:33;101860.00;;;17.40;100.00
55490;BME280;44029;52.956;4.772;2023-05-07T07:45:58;101866.94;;;17.43;100.00
55490;BME280;44029;52.956;4.772;2023-05-07T07:48:23;101861.34;;;17.27;100.00
55490;BME280;44029;52.956;4.772;2023-05-07T07:50:49;101862.53;;;17.52;100.00
55490;BME280;44029;52.956;4.772;2023-05-07T07:53:16;101871.19;;;17.08;100.00
55490;BME280;44029;52.956;4.772;2023-05-07T07:55:41;101873.13;;;17.07;100.00
55490;BME280;44029;52.956;4.772;2023-05-07T07:58:07;101868.31;;;17.45;100.00
55490;BME280;44029;52.956;4.772;2023-05-07T08:00:32;101860.47;;;17.27;100.00
55490;BME280;44029;52.956;4.772;2023-05-07T08:02:58;101877.28;;;17.05;100.00
55490;BME280;44029;52.956;4.772;2023-05-07T08:05:23;101886.91;;;16.92;100.00
55490;BME280;44029;52.956;4.772;2023-05-07T08:07:48;101894.06;;;16.88;100.00
55490;BME280;44029;52.956;4.772;2023-05-07T08:10:18;101889.72;;;17.02;100.00
55490;BME280;44029;52.956;4.772;2023-05-07T08:12:50;101889.84;;;17.28;100.00
55490;BME280;44029;52.956;4.772;2023-05-07T08:15:16;101901.13;;;17.11;100.00
55490;BME280;44029;52.956;4.772;2023-05-07T08:17:41;101897.50;;;17.05;100.00
55490;BME280;44029;52.956;4.772;2023-05-07T08:20:07;101895.28;;;17.07;100.00
55490;BME280;44029;52.956;4.772;2023-05-07T08:22:34;101884.38;;;17.43;100.00
55490;BME280;44029;52.956;4.772;2023-05-07T08:25:00;101884.47;;;17.74;100.00
55490;BME280;44029;52.956;4.772;2023-05-07T08:27:26;101884.03;;;17.98;100.00
55490;BME280;44029;52.956;4.772;2023-05-07T08:29:51;101892.09;;;18.45;100.00
55490;BME280;44029;52.956;4.772;2023-05-07T08:32:17;101878.50;;;18.44;100.00
55490;BME280;44029;52.956;4.772;2023-05-07T08:34:42;101874.91;;;18.18;100.00
55490;BME280;44029;52.956;4.772;2023-05-07T08:37:07;101877.00;;;17.69;100.00
55490;BME280;44029;52.956;4.772;2023-05-07T08:39:33;101874.78;;;17.76;100.00
55490;BME280;44029;52.956;4.772;2023-05-07T08:42:00;101889.31;;;18.40;100.00
55490;BME280;44029;52.956;4.772;2023-05-07T08:44:26;101878.91;;;19.28;100.00
55490;BME280;44029;52.956;4.772;2023-05-07T08:46:56;101878.06;;;19.87;100.00
55490;BME280;44029;52.956;4.772;2023-05-07T08:49:21;101882.38;;;19.54;100.00
55490;BME280;44029;52.956;4.772;2023-05-07T08:51:47;101880.31;;;19.25;100.00
55490;BME280;44029;52.956;4.772;2023-05-07T08:54:16;101879.34;;;19.50;100.00
55490;BME280;44029;52.956;4.772;2023-05-07T08:56:41;101877.16;;;19.47;100.00
55490;BME280;44029;52.956;4.772;2023-05-07T08:59:07;101877.78;;;19.34;100.00
55490;BME280;44029;52.956;4.772;2023-05-07T09:01:32;101872.84;;;19.81;100.00
55490;BME280;44029;52.956;4.772;2023-05-07T09:04:00;101875.06;;;20.18;100.00
55490;BME280;44029;52.956;4.772;2023-05-07T09:06:26;101870.63;;;20.17;100.00
55490;BME280;44029;52.956;4.772;2023-05-07T09:08:53;101878.56;;;20.69;100.00
55490;BME280;44029;52.956;4.772;2023-05-07T09:11:22;101869.09;;;20.70;100.00
55490;BME280;44029;52.956;4.772;2023-05-07T09:13:53;101873.78;;;20.05;100.00
55490;BME280;44029;52.956;4.772;2023-05-07T09:16:20;101879.84;;;19.68;100.00
55490;BME280;44029;52.956;4.772;2023-05-07T09:18:45;101887.75;;;19.35;100.00
55490;BME280;44029;52.956;4.772;2023-05-07T09:21:17;101880.91;;;19.72;100.00
55490;BME280;44029;52.956;4.772;2023-05-07T09:23:42;101885.53;;;19.37;100.00
55490;BME280;44029;52.956;4.772;2023-05-07T09:26:08;101885.31;;;19.88;100.00
55490;BME280;44029;52.956;4.772;2023-05-07T09:28:41;101886.06;;;20.34;100.00
55490;BME280;44029;52.956;4.772;2023-05-07T09:31:10;101878.97;;;19.78;100.00
55490;BME280;44029;52.956;4.772;2023-05-07T09:33:35;101884.25;;;19.09;100.00
55490;BME280;44029;52.956;4.772;2023-05-07T09:36:05;101885.88;;;19.20;100.00
55490;BME280;44029;52.956;4.772;2023-05-07T09:38:32;101882.88;;;19.01;100.00
55490;BME280;44029;52.956;4.772;2023-05-07T09:41:10;101891.59;;;19.49;100.00
55490;BME280;44029;52.956;4.772;2023-05-07T09:43:37;101893.56;;;19.44;100.00
55490;BME280;44029;52.956;4.772;2023-05-07T09:46:07;101888.44;;;19.66;100.00
55490;BME280;44029;52.956;4.772;2023-05-07T09:48:43;101892.06;;;20.17;100.00
55490;BME280;44029;52.956;4.772;2023-05-07T09:51:25;101885.72;;;20.06;100.00
55490;BME280;44029;52.956;4.772;2023-05-07T09:53:53;101890.41;;;19.66;100.00
55490;BME280;44029;52.956;4.772;2023-05-07T09:56:19;101889.19;;;19.87;100.00
55490;BME280;44029;52.956;4.772;2023-05-07T09:58:46;101892.41;;;20.10;100.00
55490;BME280;44029;52.956;4.772;2023-05-07T10:01:12;101896.94;;;19.96;100.00
55490;BME280;44029;52.956;4.772;2023-05-07T10:03:40;101892.41;;;20.10;100.00
55490;BME280;44029;52.956;4.772;2023-05-07T10:06:06;101890.16;;;19.62;100.00
55490;BME280;44029;52.956;4.772;2023-05-07T10:08:33;101883.84;;;19.41;100.00
55490;BME280;44029;52.956;4.772;2023-05-07T10:11:00;101891.59;;;19.55;100.00
55490;BME280;44029;52.956;4.772;2023-05-07T10:13:26;101891.63;;;19.44;100.00
55490;BME280;44029;52.956;4.772;2023-05-07T10:15:52;101886.53;;;19.62;100.00
55490;BME280;44029;52.956;4.772;2023-05-07T10:18:19;101893.75;;;19.63;100.00
55490;BME280;44029;52.956;4.772;2023-05-07T10:20:49;101891.78;;;19.68;100.00
55490;BME280;44029;52.956;4.772;2023-05-07T10:23:21;101893.94;;;19.82;100.00
55490;BME280;44029;52.956;4.772;2023-05-07T10:25:48;101906.59;;;20.43;100.00
55490;BME280;44029;52.956;4.772;2023-05-07T10:28:13;101895.34;;;20.24;100.00
55490;BME280;44029;52.956;4.772;2023-05-07T10:33:22;101888.88;;;19.94;100.00
55490;BME280;44029;52.956;4.772;2023-05-07T10:35:48;101902.50;;;19.96;100.00
55490;BME280;44029;52.956;4.772;2023-05-07T10:38:14;101892.44;;;20.00;100.00
55490;BME280;44029;52.956;4.772;2023-05-07T10:40:40;101899.63;;;20.06;100.00
55490;BME280;44029;52.956;4.772;2023-05-07T10:43:06;101904.34;;;19.56;100.00
55490;BME280;44029;52.956;4.772;2023-05-07T10:45:32;101897.09;;;19.60;100.00
55490;BME280;44029;52.956;4.772;2023-05-07T10:50:41;101897.91;;;20.15;100.00
55490;BME280;44029;52.956;4.772;2023-05-07T10:55:41;101899.22;;;19.83;100.00
55490;BME280;44029;52.956;4.772;2023-05-07T10:58:25;101904.69;;;20.38;100.00
55490;BME280;44029;52.956;4.772;2023-05-07T11:00:58;101902.31;;;20.61;100.00
55490;BME280;44029;52.956;4.772;2023-05-07T11:03:25;101913.81;;;20.49;100.00
55490;BME280;44029;52.956;4.772;2023-05-07T11:06:15;101912.41;;;20.81;100.00
55490;BME280;44029;52.956;4.772;2023-05-07T11:08:57;101905.94;;;21.15;100.00
55490;BME280;44029;52.956;4.772;2023-05-07T11:11:45;101906.09;;;20.99;100.00
55490;BME280;44029;52.956;4.772;2023-05-07T11:14:11;101911.22;;;20.87;100.00
55490;BME280;44029;52.956;4.772;2023-05-07T11:16:37;101901.41;;;21.19;100.00
55490;BME280;44029;52.956;4.772;2023-05-07T11:19:04;101909.13;;;21.27;100.00
55490;BME280;44029;52.956;4.772;2023-05-07T11:21:40;101903.53;;;21.56;100.00
55490;BME280;44029;52.956;4.772;2023-05-07T11:24:10;101904.53;;;21.85;100.00
55490;BME280;44029;52.956;4.772;2023-05-07T11:26:44;101916.28;;;21.81;100.00
55490;BME280;44029;52.956;4.772;2023-05-07T11:29:20;101917.06;;;21.63;100.00
55490;BME280;44029;52.956;4.772;2023-05-07T11:31:53;101904.91;;;21.97;100.00
55490;BME280;44029;52.956;4.772;2023-05-07T11:34:23;101916.34;;;21.76;100.00
55490;BME280;44029;52.956;4.772;2023-05-07T11:36:49;101909.53;;;21.39;100.00
55490;BME280;44029;52.956;4.772;2023-05-07T11:39:26;101908.81;;;21.96;100.00
55490;BME280;44029;52.956;4.772;2023-05-07T11:41:52;101910.31;;;21.21;100.00
55490;BME280;44029;52.956;4.772;2023-05-07T11:44:17;101909.25;;;21.17;100.00
55490;BME280;44029;52.956;4.772;2023-05-07T11:46:43;101907.34;;;21.36;100.00
55490;BME280;44029;52.956;4.772;2023-05-07T11:49:09;101909.91;;;21.57;100.00
55490;BME280;44029;52.956;4.772;2023-05-07T11:51:35;101910.91;;;21.42;100.00
55490;BME280;44029;52.956;4.772;2023-05-07T11:54:03;101910.69;;;21.81;100.00
55490;BME280;44029;52.956;4.772;2023-05-07T11:56:28;101913.50;;;21.33;100.00
55490;BME280;44029;52.956;4.772;2023-05-07T11:58:54;101915.66;;;21.41;100.00
55490;BME280;44029;52.956;4.772;2023-05-07T12:01:20;101918.31;;;21.76;100.00
55490;BME280;44029;52.956;4.772;2023-05-07T12:03:46;101919.88;;;21.82;100.00
55490;BME280;44029;52.956;4.772;2023-05-07T12:06:12;101918.59;;;21.74;100.00
55490;BME280;44029;52.956;4.772;2023-05-07T12:08:39;101908.59;;;21.92;100.00
55490;BME280;44029;52.956;4.772;2023-05-07T12:11:16;101912.66;;;21.62;100.00
55490;BME280;44029;52.956;4.772;2023-05-07T12:13:46;101918.56;;;20.78;100.00
55490;BME280;44029;52.956;4.772;2023-05-07T12:16:12;101920.53;;;21.31;100.00
55490;BME280;44029;52.956;4.772;2023-05-07T12:18:37;101915.75;;;21.79;100.00
55490;BME280;44029;52.956;4.772;2023-05-07T12:21:04;101918.03;;;21.53;100.00
55490;BME280;44029;52.956;4.772;2023-05-07T12:23:30;101915.78;;;21.31;100.00
55490;BME280;44029;52.956;4.772;2023-05-07T12:25:55;101926.34;;;21.34;100.00
55490;BME280;44029;52.956;4.772;2023-05-07T12:28:21;101929.78;;;20.97;100.00
55490;BME280;44029;52.956;4.772;2023-05-07T12:30:48;101925.63;;;21.72;100.00
55490;BME280;44029;52.956;4.772;2023-05-07T12:33:18;101918.03;;;22.15;100.00
55490;BME280;44029;52.956;4.772;2023-05-07T12:35:47;101928.56;;;21.80;100.00
55490;BME280;44029;52.956;4.772;2023-05-07T12:38:14;101918.84;;;22.16;100.00
55490;BME280;44029;52.956;4.772;2023-05-07T12:40:42;101917.69;;;22.17;100.00
55490;BME280;44029;52.956;4.772;2023-05-07T12:43:17;101919.84;;;22.06;100.00
55490;BME280;44029;52.956;4.772;2023-05-07T12:45:43;101921.94;;;21.28;100.00